Marysville, WA (98271)

8:37 AM PDT on August 31, 2015 (GMT -0700)
Kruse Junction | | Change Station
CLOSE
Current Station
Personal Weather Station
Location: North Marysville, WA
Elevation: 85 ft
Nearby Weather Stations

Elev 85 ft 48.11 °N, 122.17 °W | Updated 3 minutes ago

Overcast
Overcast
60.9 °F
Feels Like 60.9 °F
N
1.0
Wind Variable Wind from SSE
Gusts 5.0 mph

Today
High -- | Low -- °F
--% Chance of Precip.
Yesterday
High -- | Low -- °F
Precip. -- in
6:25 AM 7:52 PM
Waning Gibbous, 95% visible
Pressure 29.93 in
Visibility 10.0 miles
Clouds Overcast 2900 ft
Dew Point 53 °F
Humidity 76%
Rainfall Not available.
Snow Depth Not available.
UV 0 out of 12
Pollen .50 out of 12
Air Quality Not available.
Flu Activity Not available.
METAR KAWO 311515Z AUTO 13013G18KT 10SM OVC029 16/09 A2993 RMK AO1
Pressure 29.93 in
Visibility 10.0 miles
Clouds Overcast 2900 ft
Dew Point 53 °F
Humidity 76%
Rainfall Not available.
Snow Depth Not available.
UV 0 out of 12
Pollen .50 out of 12
Air Quality Not available.
Flu Activity Not available.
METAR KAWO 311515Z AUTO 13013G18KT 10SM OVC029 16/09 A2993 RMK AO1

10-Day Weather Forecast

×

Almanac

Astronomy

Aug. 31, 2015 Rise Set
Actual Time
Civil Twilight
Nautical Twilight
Astronomical Twilight
Moon
Length of Visible Light
Length of Day
Tomorrow will be .
, % of the Moon is Illuminated

Today's Extremes

State Highs State Lows

Community

WunderPhotos

Upload Photos

1,851,282 photos uploaded!

WunderBlogs® & News

Nearby

Air Quality

  Air Quality AQ Index Pollutant
Not available.

Snow Depth

Station Depth Elevation

Earthquake Activity

City Distance Mag. Time & Date
Minimum magnitude displayed is 2.5.

Coastal Water Temperatures

Place Temperature

Stations

Nearby Weather Stations

Station Location Temp. Windchill Dew Point Humidity Wind Precip. Elev Updated Type